createdAt,value
2023-03-22T00:01:28.788Z,22.90
2023-03-22T00:03:56.204Z,19.23
2023-03-22T00:06:24.213Z,19.30
2023-03-22T00:08:52.683Z,21.90
2023-03-22T00:11:21.178Z,20.53
2023-03-22T00:13:48.334Z,18.63
2023-03-22T00:16:15.778Z,21.00
2023-03-22T00:18:42.787Z,19.07
2023-03-22T00:21:15.470Z,20.33
2023-03-22T00:23:43.274Z,19.70
2023-03-22T00:26:11.532Z,24.40
2023-03-22T00:28:38.827Z,26.40
2023-03-22T00:31:06.966Z,23.23
2023-03-22T00:33:36.459Z,26.73
2023-03-22T00:36:07.934Z,27.17
2023-03-22T00:38:42.911Z,24.03
2023-03-22T00:41:29.311Z,27.30
2023-03-22T00:43:56.298Z,28.23
2023-03-22T00:46:23.673Z,26.93
2023-03-22T00:48:50.735Z,26.60
2023-03-22T00:51:18.232Z,26.97
2023-03-22T00:53:45.485Z,26.63
2023-03-22T00:56:14.417Z,30.93
2023-03-22T00:58:42.247Z,26.73
2023-03-22T01:01:09.775Z,28.37
2023-03-22T01:03:38.792Z,29.90
2023-03-22T01:06:06.767Z,27.17
2023-03-22T01:08:34.361Z,27.97
2023-03-22T01:11:01.864Z,32.10
2023-03-22T01:13:29.292Z,32.37
2023-03-22T01:15:56.529Z,31.47
2023-03-22T01:18:23.672Z,31.53
2023-03-22T01:20:51.647Z,30.20
2023-03-22T01:23:18.960Z,32.63
2023-03-22T01:25:46.795Z,32.13
2023-03-22T01:28:14.150Z,33.13
2023-03-22T01:30:41.743Z,31.83
2023-03-22T01:33:10.986Z,33.23
2023-03-22T01:35:38.019Z,29.70
2023-03-22T01:38:05.118Z,29.63
2023-03-22T01:40:33.111Z,35.97
2023-03-22T01:43:00.130Z,34.17
2023-03-22T01:45:41.570Z,29.33
2023-03-22T01:48:24.110Z,29.43
2023-03-22T01:51:13.897Z,30.27
2023-03-22T01:53:44.614Z,34.70
2023-03-22T01:56:12.878Z,31.63
2023-03-22T01:58:41.270Z,28.60
2023-03-22T02:01:10.588Z,27.83
2023-03-22T02:04:03.651Z,32.03
2023-03-22T02:06:32.517Z,30.07
2023-03-22T02:09:00.094Z,34.10
2023-03-22T02:11:31.743Z,29.97
2023-03-22T02:14:27.311Z,31.60
2023-03-22T02:17:19.826Z,22.73
2023-03-22T02:20:21.645Z,33.43
2023-03-22T02:23:28.332Z,32.50
2023-03-22T02:29:22.433Z,27.30
2023-03-22T02:32:29.143Z,28.63
2023-03-22T02:38:22.670Z,32.70
2023-03-22T02:41:22.697Z,28.77
2023-03-22T02:44:17.135Z,32.00
2023-03-22T02:46:51.392Z,30.30
2023-03-22T02:49:28.668Z,31.93
2023-03-22T02:52:03.604Z,31.43
2023-03-22T02:55:10.310Z,35.65
2023-03-22T02:57:42.068Z,32.67
2023-03-22T03:00:12.517Z,30.67
2023-03-22T03:02:45.760Z,32.43
2023-03-22T03:05:15.052Z,32.50
2023-03-22T03:07:43.997Z,38.63
2023-03-22T03:10:15.244Z,34.90
2023-03-22T03:12:42.977Z,34.53
2023-03-22T03:15:15.500Z,33.87
2023-03-22T03:18:11.508Z,36.57
2023-03-22T03:21:04.360Z,36.00
2023-03-22T03:23:58.081Z,38.03
2023-03-22T03:27:04.737Z,43.03
2023-03-22T03:32:13.202Z,39.73
2023-03-22T03:34:45.676Z,36.13
2023-03-22T03:37:18.642Z,44.97
2023-03-22T03:39:49.451Z,38.37
2023-03-22T03:42:17.868Z,42.13
2023-03-22T03:44:45.437Z,46.27
2023-03-22T03:47:13.326Z,41.03
2023-03-22T03:49:40.887Z,45.60
2023-03-22T03:52:08.210Z,44.37
2023-03-22T03:54:35.659Z,45.20
2023-03-22T03:57:04.169Z,45.67
2023-03-22T03:59:31.699Z,48.20
2023-03-22T04:01:59.145Z,47.43
2023-03-22T04:04:28.593Z,49.67
2023-03-22T04:06:57.818Z,47.97
2023-03-22T04:09:27.468Z,45.27
2023-03-22T04:11:55.698Z,50.50
2023-03-22T04:14:22.979Z,52.50
2023-03-22T04:16:50.371Z,50.10
2023-03-22T04:19:17.903Z,53.00
2023-03-22T04:21:45.985Z,51.90
2023-03-22T04:24:13.654Z,52.70
2023-03-22T04:26:41.431Z,52.20
2023-03-22T04:29:09.540Z,51.20
2023-03-22T04:31:37.706Z,55.23
2023-03-22T04:34:05.794Z,54.40
2023-03-22T04:36:39.473Z,50.73
2023-03-22T04:39:09.573Z,48.83
2023-03-22T04:41:37.318Z,47.27
2023-03-22T04:44:05.779Z,51.97
2023-03-22T04:46:35.152Z,53.97
2023-03-22T04:49:02.303Z,51.30
2023-03-22T04:51:30.583Z,55.73
2023-03-22T04:53:57.894Z,50.40
2023-03-22T04:56:25.512Z,51.90
2023-03-22T04:58:52.840Z,48.10
2023-03-22T05:01:20.221Z,50.63
2023-03-22T05:03:47.821Z,46.60
2023-03-22T05:06:15.362Z,45.97
2023-03-22T05:08:42.593Z,46.60
2023-03-22T05:11:15.200Z,47.40
2023-03-22T05:13:42.647Z,45.13
2023-03-22T05:16:10.829Z,47.07
2023-03-22T05:18:42.506Z,46.93
2023-03-22T05:21:15.665Z,46.60
2023-03-22T05:23:43.860Z,45.77
2023-03-22T05:26:15.665Z,44.63
2023-03-22T05:28:44.260Z,44.47
2023-03-22T05:31:15.140Z,46.57
2023-03-22T05:33:42.536Z,45.13
2023-03-22T05:36:11.443Z,41.90
2023-03-22T05:38:39.005Z,37.40
2023-03-22T05:41:06.632Z,42.17
2023-03-22T05:43:34.280Z,41.30
2023-03-22T05:46:01.301Z,40.63
2023-03-22T05:48:28.610Z,40.50
2023-03-22T05:50:56.138Z,40.03
2023-03-22T05:53:23.462Z,36.13
2023-03-22T05:55:50.829Z,39.10
2023-03-22T05:58:19.242Z,36.73
2023-03-22T06:00:49.972Z,37.50
2023-03-22T06:03:18.475Z,37.13
2023-03-22T06:05:46.715Z,35.00
2023-03-22T06:08:14.038Z,34.07
2023-03-22T06:10:41.295Z,40.40
2023-03-22T06:13:09.273Z,33.50
2023-03-22T06:15:36.472Z,40.40
2023-03-22T06:18:03.557Z,39.93
2023-03-22T06:20:30.584Z,37.40
2023-03-22T06:22:57.598Z,37.67
2023-03-22T06:25:24.681Z,38.10
2023-03-22T06:27:51.988Z,40.30
2023-03-22T06:30:20.381Z,40.63
2023-03-22T06:32:47.691Z,36.97
2023-03-22T06:35:15.729Z,44.00
2023-03-22T06:37:43.141Z,42.47
2023-03-22T06:40:10.980Z,37.07
2023-03-22T06:42:37.994Z,42.63
2023-03-22T06:45:05.756Z,41.87
2023-03-22T06:47:33.237Z,40.97
2023-03-22T06:50:03.027Z,43.27
2023-03-22T06:52:33.248Z,43.43
2023-03-22T06:55:00.266Z,44.73
2023-03-22T06:57:27.685Z,49.33
2023-03-22T06:59:55.109Z,46.07
2023-03-22T07:02:22.468Z,49.10
2023-03-22T07:04:49.953Z,46.67
2023-03-22T07:07:17.293Z,43.97
2023-03-22T07:09:44.460Z,40.03
2023-03-22T07:12:11.799Z,46.57
2023-03-22T07:14:39.707Z,44.93
2023-03-22T07:17:07.142Z,44.57
2023-03-22T07:19:34.929Z,45.63
2023-03-22T07:22:02.346Z,47.37
2023-03-22T07:24:29.636Z,42.20
2023-03-22T07:26:56.969Z,44.23
2023-03-22T07:29:24.383Z,43.17
2023-03-22T07:31:51.894Z,39.77
2023-03-22T07:34:19.259Z,40.47
2023-03-22T07:36:46.612Z,43.73
2023-03-22T07:39:13.963Z,39.93
2023-03-22T07:41:41.351Z,46.33
2023-03-22T07:44:17.717Z,41.80
2023-03-22T07:46:45.651Z,43.73
2023-03-22T07:49:13.071Z,40.63
2023-03-22T07:51:40.459Z,39.33
2023-03-22T07:54:07.988Z,38.13
2023-03-22T07:56:35.674Z,41.60
2023-03-22T07:59:03.162Z,43.27
2023-03-22T08:01:30.673Z,39.73
2023-03-22T08:03:58.010Z,39.23
2023-03-22T08:06:25.225Z,39.37
2023-03-22T08:08:52.329Z,40.10
2023-03-22T08:11:19.626Z,39.30
2023-03-22T08:13:46.974Z,35.57
2023-03-22T08:16:14.400Z,38.27
2023-03-22T08:18:44.204Z,39.03
2023-03-22T08:21:11.532Z,38.43
2023-03-22T08:23:42.181Z,38.17
2023-03-22T08:26:10.827Z,34.07
2023-03-22T08:28:38.271Z,34.00
2023-03-22T08:31:15.852Z,34.90
2023-03-22T08:33:43.684Z,39.47
2023-03-22T08:36:14.198Z,34.83
2023-03-22T08:39:06.656Z,36.43
2023-03-22T08:41:34.040Z,37.20
2023-03-22T08:44:01.453Z,35.20
2023-03-22T08:46:28.904Z,35.57
2023-03-22T08:48:59.172Z,35.17
2023-03-22T08:51:26.855Z,34.53
2023-03-22T08:53:53.888Z,30.40
2023-03-22T08:56:22.742Z,28.70
2023-03-22T08:58:50.334Z,28.43
2023-03-22T09:01:18.191Z,26.57
2023-03-22T09:03:45.803Z,24.33
2023-03-22T09:06:15.486Z,24.17
2023-03-22T09:08:42.624Z,26.80
2023-03-22T09:11:10.843Z,22.70
2023-03-22T09:13:38.415Z,22.57
2023-03-22T09:16:09.024Z,26.57
2023-03-22T09:18:40.943Z,26.80
2023-03-22T09:21:09.009Z,24.17
2023-03-22T09:23:38.020Z,23.50
2023-03-22T09:26:07.767Z,23.47
2023-03-22T09:28:36.183Z,24.67
2023-03-22T09:31:06.905Z,23.47
2023-03-22T09:33:34.997Z,23.33
2023-03-22T09:36:02.399Z,23.30
2023-03-22T09:38:32.617Z,22.87
2023-03-22T09:41:05.535Z,19.17
2023-03-22T09:43:36.860Z,22.03
2023-03-22T09:46:08.030Z,21.03
2023-03-22T09:48:39.234Z,19.77
2023-03-22T09:51:13.778Z,22.63
2023-03-22T09:53:40.772Z,23.20
2023-03-22T09:56:20.391Z,23.00
2023-03-22T09:59:27.218Z,19.93
2023-03-22T10:02:01.448Z,19.83
2023-03-22T10:04:56.568Z,21.95
2023-03-22T10:08:03.251Z,19.33
2023-03-22T10:10:30.815Z,19.67
2023-03-22T10:13:07.813Z,21.57
2023-03-22T10:15:57.314Z,21.30
2023-03-22T10:18:50.683Z,20.77
2023-03-22T10:21:19.637Z,18.77
2023-03-22T10:24:17.372Z,20.87
2023-03-22T10:26:47.777Z,19.03
2023-03-22T10:29:37.981Z,18.80
2023-03-22T10:32:29.532Z,23.40
2023-03-22T10:34:57.015Z,21.60
2023-03-22T10:37:32.163Z,22.77
2023-03-22T10:40:08.048Z,22.08
2023-03-22T10:42:39.070Z,20.47
2023-03-22T10:45:16.062Z,22.07
2023-03-22T10:47:53.470Z,23.30
2023-03-22T10:50:28.603Z,20.37
2023-03-22T10:53:19.569Z,21.20
2023-03-22T10:55:46.935Z,21.60
2023-03-22T10:58:17.794Z,19.63
2023-03-22T11:00:49.792Z,21.67
2023-03-22T11:03:49.523Z,21.47
2023-03-22T11:06:21.037Z,21.67
2023-03-22T11:09:24.123Z,19.43
2023-03-22T11:12:13.690Z,19.53
2023-03-22T11:14:45.202Z,21.23
2023-03-22T11:17:15.412Z,21.47
2023-03-22T11:19:55.380Z,19.60
2023-03-22T11:22:45.448Z,18.13
2023-03-22T11:25:21.062Z,21.30
2023-03-22T11:28:10.489Z,19.47
2023-03-22T11:30:38.196Z,22.53
2023-03-22T11:33:26.167Z,18.83
2023-03-22T11:35:56.797Z,20.80
2023-03-22T11:38:45.533Z,16.30
2023-03-22T11:41:23.852Z,20.60
2023-03-22T11:44:12.089Z,19.33
2023-03-22T11:46:40.196Z,18.00
2023-03-22T11:49:14.570Z,18.53
2023-03-22T11:51:43.221Z,15.45
2023-03-22T11:54:32.018Z,18.97
2023-03-22T11:57:04.445Z,18.67
2023-03-22T11:59:38.792Z,20.23
2023-03-22T12:02:46.426Z,20.80
2023-03-22T12:05:32.036Z,20.47
2023-03-22T12:08:06.358Z,17.60
2023-03-22T12:10:39.724Z,14.70
2023-03-22T12:13:16.051Z,17.80
2023-03-22T12:15:48.631Z,20.33
2023-03-22T12:18:22.792Z,19.17
2023-03-22T12:20:55.693Z,19.77
2023-03-22T12:23:25.698Z,20.30
2023-03-22T12:26:33.454Z,19.60
2023-03-22T12:29:19.340Z,19.20
2023-03-22T12:32:12.442Z,19.83
2023-03-22T12:34:43.803Z,18.47
2023-03-22T12:37:17.402Z,19.33
2023-03-22T12:40:08.646Z,17.90
2023-03-22T12:42:55.468Z,18.60
2023-03-22T12:45:28.711Z,17.13
2023-03-22T12:51:52.242Z,18.13
2023-03-22T12:54:23.445Z,21.57
2023-03-22T12:56:51.878Z,19.57
2023-03-22T12:59:27.254Z,19.03
2023-03-22T13:04:53.198Z,18.80
2023-03-22T13:08:03.674Z,19.17
2023-03-22T13:11:00.339Z,20.07
2023-03-22T13:13:44.284Z,18.80
2023-03-22T13:16:51.224Z,17.50
2023-03-22T13:19:30.001Z,23.00
2023-03-22T13:22:18.919Z,22.50
2023-03-22T13:25:13.534Z,25.90
2023-03-22T13:28:20.232Z,21.80
2023-03-22T13:31:07.173Z,20.70
2023-03-22T13:33:36.838Z,21.70
2023-03-22T13:36:25.131Z,24.20
2023-03-22T13:38:59.108Z,19.40
2023-03-22T13:41:30.597Z,19.37
2023-03-22T13:44:02.111Z,21.90
2023-03-22T13:46:44.765Z,24.73
2023-03-22T13:49:39.329Z,22.63
2023-03-22T13:52:08.648Z,21.00
2023-03-22T13:54:44.303Z,20.07
2023-03-22T13:57:33.604Z,19.03
2023-03-22T14:00:14.386Z,21.07
2023-03-22T14:02:43.312Z,22.87
2023-03-22T14:05:17.816Z,22.13
2023-03-22T14:07:50.928Z,18.23
2023-03-22T14:10:22.862Z,20.93
2023-03-22T14:13:14.884Z,20.37
2023-03-22T14:15:48.838Z,20.80
2023-03-22T14:18:38.498Z,22.90
2023-03-22T14:21:12.736Z,22.13
